Time;durP1;ratioP1;P1;durP2;ratioP2;P2;SDS_P1;SDS_P2;PMS_P1;PMS_P2;Temp;Humidity;BMP_temperature;BMP_pressure;BME280_temperature;BME280_humidity;BME280_pressure;Samples;Min_cycle;Max_cycle;Signal;HPM_P1;HPM_P2
2021/01/10 00:02:24;;;;;;;13.77;8.77;;;;;;;;;;5059011;28;20513;-71
2021/01/10 00:04:52;;;;;;;12.67;7.87;;;;;;;;;;5059142;28;20515;-71
2021/01/10 00:07:22;;;;;;;14.23;8.63;;;;;;;;;;5058714;28;20457;-71
2021/01/10 00:09:49;;;;;;;12.13;7.20;;;;;;;;;;5059152;28;20442;-71
2021/01/10 00:12:20;;;;;;;12.70;7.60;;;;;;;;;;5059019;28;20509;-71
2021/01/10 00:14:47;;;;;;;11.57;7.03;;;;;;;;;;5058856;28;20524;-71
2021/01/10 00:17:14;;;;;;;14.20;8.40;;;;;;;;;;5058961;28;20532;-71
2021/01/10 00:19:42;;;;;;;11.37;7.43;;;;;;;;;;5058873;28;20462;-71
2021/01/10 00:22:10;;;;;;;11.20;6.90;;;;;;;;;;5058610;28;20573;-71
2021/01/10 00:24:38;;;;;;;10.50;6.87;;;;;;;;;;5058594;28;20569;-71
2021/01/10 00:27:07;;;;;;;12.87;7.23;;;;;;;;;;5058454;28;20801;-71
2021/01/10 00:29:35;;;;;;;11.67;7.10;;;;;;;;;;5058228;28;20449;-71
2021/01/10 00:32:02;;;;;;;14.03;8.83;;;;;;;;;;5058739;28;20446;-71
2021/01/10 00:34:29;;;;;;;12.03;7.47;;;;;;;;;;5058387;28;20461;-71
2021/01/10 00:36:59;;;;;;;14.13;7.00;;;;;;;;;;5058163;28;20460;-71
2021/01/10 00:39:26;;;;;;;9.53;7.03;;;;;;;;;;5058444;28;20488;-71
2021/01/10 00:41:53;;;;;;;10.43;6.97;;;;;;;;;;5057971;28;21365;-71
2021/01/10 00:44:20;;;;;;;12.33;6.77;;;;;;;;;;5058391;28;20564;-71
2021/01/10 00:46:52;;;;;;;12.27;7.47;;;;;;;;;;5058081;28;20457;-71
2021/01/10 00:49:19;;;;;;;9.90;7.20;;;;;;;;;;5058223;28;20445;-71
2021/01/10 00:51:49;;;;;;;10.73;6.90;;;;;;;;;;5058149;28;20484;-70
2021/01/10 00:54:16;;;;;;;13.60;7.57;;;;;;;;;;5057901;28;20465;-71
2021/01/10 00:56:43;;;;;;;11.70;7.37;;;;;;;;;;5058164;28;20500;-71
2021/01/10 00:59:10;;;;;;;13.37;8.00;;;;;;;;;;5058377;28;20445;-71
2021/01/10 01:01:37;;;;;;;12.67;8.70;;;;;;;;;;5058541;28;20489;-70
2021/01/10 01:04:06;;;;;;;11.07;6.97;;;;;;;;;;5058352;28;20503;-71
2021/01/10 01:06:33;;;;;;;11.77;7.37;;;;;;;;;;5058343;28;20453;-71
2021/01/10 01:09:02;;;;;;;11.77;7.00;;;;;;;;;;5057661;28;20499;-71
2021/01/10 01:11:29;;;;;;;10.63;6.93;;;;;;;;;;5057797;28;20469;-71
2021/01/10 01:13:56;;;;;;;11.97;7.40;;;;;;;;;;5057915;28;20441;-71
2021/01/10 01:16:23;;;;;;;11.87;7.17;;;;;;;;;;5057804;28;20819;-71
2021/01/10 01:18:50;;;;;;;13.67;7.23;;;;;;;;;;5057753;28;20810;-71
2021/01/10 01:21:19;;;;;;;12.57;7.47;;;;;;;;;;5057914;28;20477;-71
2021/01/10 01:23:46;;;;;;;13.63;7.33;;;;;;;;;;5057588;28;20524;-71
2021/01/10 01:26:16;;;;;;;13.20;7.77;;;;;;;;;;5057708;28;20480;-71
2021/01/10 01:28:43;;;;;;;9.80;6.57;;;;;;;;;;5057825;28;20441;-71
2021/01/10 01:31:11;;;;;;;11.93;7.30;;;;;;;;;;5057752;28;20485;-71
2021/01/10 01:33:38;;;;;;;10.80;7.00;;;;;;;;;;5057780;28;20479;-71
2021/01/10 01:36:09;;;;;;;10.00;6.87;;;;;;;;;;5057466;28;20552;-70
2021/01/10 01:38:37;;;;;;;11.23;7.07;;;;;;;;;;5057219;28;21051;-70
2021/01/10 01:41:06;;;;;;;11.60;7.00;;;;;;;;;;5060945;28;20484;-71
2021/01/10 01:43:33;;;;;;;12.33;7.77;;;;;;;;;;5061866;28;20505;-70
2021/01/10 01:46:01;;;;;;;12.63;7.30;;;;;;;;;;5061742;28;20477;-71
2021/01/10 01:48:28;;;;;;;11.80;6.97;;;;;;;;;;5061766;28;20495;-71
2021/01/10 01:50:56;;;;;;;9.97;7.20;;;;;;;;;;5061801;28;20449;-70
2021/01/10 01:53:23;;;;;;;14.47;7.50;;;;;;;;;;5061500;28;20528;-70
2021/01/10 01:55:53;;;;;;;11.60;7.37;;;;;;;;;;5061620;28;20493;-71
2021/01/10 01:58:20;;;;;;;11.07;7.47;;;;;;;;;;5057289;28;20485;-70
2021/01/10 02:00:47;;;;;;;11.27;6.60;;;;;;;;;;5061396;28;20440;-70
2021/01/10 02:03:18;;;;;;;12.23;7.90;;;;;;;;;;5061252;28;20434;-70
2021/01/10 02:05:45;;;;;;;13.53;7.47;;;;;;;;;;5061352;28;20473;-71
2021/01/10 02:08:13;;;;;;;11.73;7.87;;;;;;;;;;5061105;28;20532;-70
2021/01/10 02:10:41;;;;;;;13.03;7.40;;;;;;;;;;5061247;28;20519;-70
2021/01/10 02:13:13;;;;;;;12.53;7.37;;;;;;;;;;5060900;28;20928;-70
2021/01/10 02:15:40;;;;;;;10.23;7.30;;;;;;;;;;5060787;28;21024;-70
2021/01/10 02:18:08;;;;;;;9.87;6.40;;;;;;;;;;5061020;28;20437;-70
2021/01/10 02:20:35;;;;;;;9.47;6.97;;;;;;;;;;5061100;28;20459;-70
2021/01/10 02:23:05;;;;;;;10.93;7.50;;;;;;;;;;5060776;28;20540;-70
2021/01/10 02:25:34;;;;;;;10.53;6.73;;;;;;;;;;5060594;28;20995;-70
2021/01/10 02:28:02;;;;;;;13.50;7.80;;;;;;;;;;5060797;28;20532;-70
2021/01/10 02:30:30;;;;;;;12.13;7.37;;;;;;;;;;5060724;28;20453;-70
2021/01/10 02:33:01;;;;;;;11.00;7.00;;;;;;;;;;5061234;28;20492;-71
2021/01/10 02:35:29;;;;;;;10.07;6.93;;;;;;;;;;5060562;28;20473;-70
2021/01/10 02:38:08;;;;;;;12.07;6.50;;;;;;;;;;5060499;28;20485;-70
2021/01/10 02:40:39;;;;;;;10.50;7.27;;;;;;;;;;5060665;28;20523;-70
2021/01/10 02:43:08;;;;;;;11.20;7.03;;;;;;;;;;5060585;28;20512;-71
2021/01/10 02:45:35;;;;;;;15.33;7.90;;;;;;;;;;5060784;28;20519;-70
2021/01/10 02:48:02;;;;;;;12.77;7.97;;;;;;;;;;5060427;28;20797;-70
2021/01/10 02:50:31;;;;;;;11.20;6.83;;;;;;;;;;5060640;28;20447;-70
2021/01/10 02:52:58;;;;;;;13.10;7.37;;;;;;;;;;5059673;28;20448;-70
2021/01/10 02:55:25;;;;;;;9.53;6.57;;;;;;;;;;5060593;28;20564;-70
2021/01/10 02:57:54;;;;;;;9.37;6.23;;;;;;;;;;5060151;28;20445;-70
2021/01/10 03:00:22;;;;;;;12.10;7.17;;;;;;;;;;5060467;28;20457;-70
2021/01/10 03:02:49;;;;;;;11.07;6.87;;;;;;;;;;5060055;28;20489;-70
2021/01/10 03:05:16;;;;;;;10.43;5.97;;;;;;;;;;5060149;28;20473;-70
2021/01/10 03:07:45;;;;;;;12.80;7.53;;;;;;;;;;5059927;28;20438;-70
2021/01/10 03:10:12;;;;;;;11.30;6.73;;;;;;;;;;5060083;28;20452;-70
2021/01/10 03:12:40;;;;;;;12.13;6.90;;;;;;;;;;5060103;28;20452;-70
2021/01/10 03:15:09;;;;;;;12.63;8.03;;;;;;;;;;5060205;28;20548;-70
2021/01/10 03:17:42;;;;;;;10.93;6.63;;;;;;;;;;5060122;28;20529;-70
2021/01/10 03:20:10;;;;;;;9.50;7.17;;;;;;;;;;5060297;28;20473;-70
2021/01/10 03:22:38;;;;;;;11.83;7.07;;;;;;;;;;5059728;28;20577;-70
2021/01/10 03:25:05;;;;;;;9.40;6.47;;;;;;;;;;5059667;28;20469;-70
2021/01/10 03:27:33;;;;;;;10.73;6.70;;;;;;;;;;5059830;28;20477;-70
2021/01/10 03:30:02;;;;;;;12.57;7.20;;;;;;;;;;5059721;28;20477;-70
2021/01/10 03:32:30;;;;;;;8.87;7.17;;;;;;;;;;5059969;28;20451;-71
2021/01/10 03:34:57;;;;;;;11.03;7.17;;;;;;;;;;5059794;28;20461;-70
2021/01/10 03:37:24;;;;;;;9.80;6.70;;;;;;;;;;5059341;28;20536;-70
2021/01/10 03:39:51;;;;;;;13.70;7.70;;;;;;;;;;5059793;28;20445;-70
2021/01/10 03:42:18;;;;;;;10.47;7.20;;;;;;;;;;5059460;28;20492;-70
2021/01/10 03:44:45;;;;;;;11.30;7.20;;;;;;;;;;5059612;28;20552;-70
2021/01/10 03:47:12;;;;;;;12.70;7.27;;;;;;;;;;5059220;28;20549;-70
2021/01/10 03:49:39;;;;;;;13.13;7.60;;;;;;;;;;5059453;28;20866;-70
2021/01/10 03:52:06;;;;;;;11.27;8.23;;;;;;;;;;5046074;28;20449;-70
2021/01/10 03:54:33;;;;;;;12.53;7.40;;;;;;;;;;5059348;28;20549;-70
2021/01/10 03:57:02;;;;;;;11.43;6.83;;;;;;;;;;5059201;28;20998;-70
2021/01/10 03:59:29;;;;;;;12.27;7.13;;;;;;;;;;5059096;28;20987;-70
2021/01/10 04:01:55;;;;;;;14.10;7.50;;;;;;;;;;5059219;28;20485;-70
2021/01/10 04:04:23;;;;;;;12.90;7.13;;;;;;;;;;5058157;28;20465;-70
2021/01/10 04:06:51;;;;;;;10.30;6.70;;;;;;;;;;5059028;28;20529;-70
2021/01/10 04:09:18;;;;;;;12.00;7.50;;;;;;;;;;5058882;28;20445;-70
2021/01/10 04:11:44;;;;;;;12.20;7.27;;;;;;;;;;5059128;28;20991;-70
2021/01/10 04:14:11;;;;;;;11.40;7.50;;;;;;;;;;5058671;28;20467;-70
2021/01/10 04:16:38;;;;;;;12.07;7.60;;;;;;;;;;5059111;28;20450;-70
2021/01/10 04:19:06;;;;;;;9.73;6.47;;;;;;;;;;5058985;28;20554;-70
2021/01/10 04:21:33;;;;;;;10.87;7.17;;;;;;;;;;5058676;28;20488;-70
2021/01/10 04:24:01;;;;;;;11.13;7.07;;;;;;;;;;5058514;28;21019;-70
2021/01/10 04:26:28;;;;;;;11.40;6.67;;;;;;;;;;5058548;28;20533;-70
2021/01/10 04:28:55;;;;;;;11.73;7.53;;;;;;;;;;5058758;28;20524;-70
2021/01/10 04:31:22;;;;;;;9.30;6.93;;;;;;;;;;5058855;28;20449;-70
2021/01/10 04:33:49;;;;;;;10.67;6.73;;;;;;;;;;5058606;28;20441;-70
2021/01/10 04:36:16;;;;;;;10.37;6.60;;;;;;;;;;5058677;28;20992;-70
2021/01/10 04:38:43;;;;;;;13.00;7.53;;;;;;;;;;5058032;28;20470;-70
2021/01/10 04:41:11;;;;;;;11.30;6.50;;;;;;;;;;5058401;28;20459;-70
2021/01/10 04:43:38;;;;;;;9.57;6.07;;;;;;;;;;5058254;28;20948;-70
2021/01/10 04:46:05;;;;;;;11.50;6.90;;;;;;;;;;5058663;28;20458;-70
2021/01/10 04:48:32;;;;;;;11.07;7.27;;;;;;;;;;5058597;28;20516;-70
2021/01/10 04:50:59;;;;;;;10.80;7.47;;;;;;;;;;5058600;28;20912;-70
2021/01/10 04:53:27;;;;;;;12.70;7.20;;;;;;;;;;5057996;28;20444;-70
2021/01/10 04:55:58;;;;;;;10.67;7.10;;;;;;;;;;5057973;28;20549;-70
2021/01/10 04:58:28;;;;;;;11.40;6.53;;;;;;;;;;5058248;28;20451;-70
2021/01/10 05:00:57;;;;;;;9.97;6.30;;;;;;;;;;5058142;28;20449;-70
2021/01/10 05:03:25;;;;;;;12.13;6.40;;;;;;;;;;5058056;28;20477;-70
2021/01/10 05:05:52;;;;;;;13.47;7.30;;;;;;;;;;5058081;28;20515;-70
2021/01/10 05:08:19;;;;;;;11.60;6.70;;;;;;;;;;5057689;28;20440;-69
2021/01/10 05:10:46;;;;;;;10.13;7.37;;;;;;;;;;5057895;28;20804;-69
2021/01/10 05:13:13;;;;;;;13.67;7.37;;;;;;;;;;5057998;28;20521;-69
2021/01/10 05:15:43;;;;;;;12.03;7.70;;;;;;;;;;5057495;28;20528;-69
2021/01/10 05:18:10;;;;;;;10.63;6.80;;;;;;;;;;5058028;28;20450;-70
2021/01/10 05:20:38;;;;;;;14.00;8.17;;;;;;;;;;5058378;28;20447;-70
2021/01/10 05:23:05;;;;;;;11.90;7.37;;;;;;;;;;5058351;28;20500;-70
2021/01/10 05:25:33;;;;;;;11.77;6.97;;;;;;;;;;5058086;28;20876;-70
2021/01/10 05:28:00;;;;;;;10.67;7.57;;;;;;;;;;5057610;28;20458;-71
2021/01/10 05:30:28;;;;;;;10.27;7.50;;;;;;;;;;5057606;28;20924;-70
2021/01/10 05:33:00;;;;;;;11.33;6.77;;;;;;;;;;5057881;28;20469;-70
2021/01/10 05:35:47;;;;;;;10.10;7.17;;;;;;;;;;5057641;28;20465;-70
2021/01/10 05:38:24;;;;;;;10.20;7.33;;;;;;;;;;5057356;28;20563;-70
2021/01/10 05:40:52;;;;;;;10.03;6.37;;;;;;;;;;5057854;28;20457;-70
2021/01/10 05:43:19;;;;;;;9.63;6.93;;;;;;;;;;5057425;28;20492;-70
2021/01/10 05:45:46;;;;;;;9.33;6.80;;;;;;;;;;5057494;28;20446;-70
2021/01/10 05:48:15;;;;;;;10.50;6.90;;;;;;;;;;5057346;28;20453;-70
2021/01/10 05:50:43;;;;;;;9.50;6.57;;;;;;;;;;5057712;28;20507;-69
2021/01/10 05:53:17;;;;;;;12.43;7.20;;;;;;;;;;5057077;28;20906;-69
2021/01/10 05:55:53;;;;;;;10.73;7.23;;;;;;;;;;5057337;28;20872;-69
2021/01/10 05:58:21;;;;;;;10.63;7.10;;;;;;;;;;5057553;28;20548;-70
2021/01/10 06:00:50;;;;;;;11.20;7.53;;;;;;;;;;5057262;28;20851;-70
2021/01/10 06:03:18;;;;;;;10.27;6.03;;;;;;;;;;5057459;28;20509;-70
2021/01/10 06:05:58;;;;;;;12.27;7.17;;;;;;;;;;5057464;28;20472;-70
2021/01/10 06:08:26;;;;;;;9.93;7.60;;;;;;;;;;5057228;28;20457;-70
2021/01/10 06:10:53;;;;;;;10.33;7.20;;;;;;;;;;5057470;28;20449;-70
2021/01/10 06:13:20;;;;;;;10.43;6.83;;;;;;;;;;5057217;28;20947;-70
2021/01/10 06:15:48;;;;;;;12.00;6.40;;;;;;;;;;5057296;28;20473;-71
2021/01/10 06:18:16;;;;;;;12.10;7.13;;;;;;;;;;5057369;28;20859;-70
2021/01/10 06:20:43;;;;;;;12.67;7.20;;;;;;;;;;5057314;28;20536;-70
2021/01/10 06:23:10;;;;;;;10.73;7.10;;;;;;;;;;5056641;28;20495;-70
2021/01/10 06:25:40;;;;;;;11.47;6.83;;;;;;;;;;5056471;28;20998;-69
2021/01/10 06:28:11;;;;;;;11.50;7.47;;;;;;;;;;5066857;28;20448;-70
2021/01/10 06:30:41;;;;;;;13.70;7.20;;;;;;;;;;5064843;28;20457;-69
2021/01/10 06:33:11;;;;;;;11.13;6.80;;;;;;;;;;5069079;28;20517;-69
2021/01/10 06:35:39;;;;;;;10.83;7.47;;;;;;;;;;5065912;28;20448;-70
2021/01/10 06:38:08;;;;;;;11.93;7.93;;;;;;;;;;5069141;28;21054;-69
2021/01/10 06:40:38;;;;;;;11.47;6.50;;;;;;;;;;5069389;28;20441;-70
2021/01/10 06:43:06;;;;;;;9.03;6.00;;;;;;;;;;5067719;28;20566;-69
2021/01/10 06:45:38;;;;;;;10.47;6.23;;;;;;;;;;5065132;28;20461;-70
2021/01/10 06:48:05;;;;;;;11.23;7.23;;;;;;;;;;5064022;28;20444;-70
2021/01/10 06:50:33;;;;;;;9.57;6.20;;;;;;;;;;5070669;28;20524;-70
2021/01/10 06:53:03;;;;;;;8.73;6.33;;;;;;;;;;5072551;28;20535;-70
2021/01/10 06:55:31;;;;;;;10.03;6.50;;;;;;;;;;5060361;28;20469;-70
2021/01/10 06:58:06;;;;;;;12.60;7.10;;;;;;;;;;5060109;28;20951;-70
2021/01/10 07:00:47;;;;;;;9.23;5.90;;;;;;;;;;5060289;28;21025;-70
2021/01/10 07:03:14;;;;;;;11.30;7.07;;;;;;;;;;5059993;28;20503;-70
2021/01/10 07:06:06;;;;;;;12.50;7.30;;;;;;;;;;5059033;28;20462;-70
2021/01/10 07:08:33;;;;;;;11.47;7.37;;;;;;;;;;5056042;28;20449;-70
2021/01/10 07:11:19;;;;;;;12.67;7.30;;;;;;;;;;5058997;28;20441;-70
2021/01/10 07:13:47;;;;;;;9.47;6.33;;;;;;;;;;5051820;28;20814;-70
2021/01/10 07:16:17;;;;;;;11.37;6.80;;;;;;;;;;5058284;28;20452;-70
2021/01/10 07:18:50;;;;;;;13.33;7.97;;;;;;;;;;5058704;28;20631;-70
2021/01/10 07:21:28;;;;;;;12.13;7.47;;;;;;;;;;5056790;28;20451;-70
2021/01/10 07:24:10;;;;;;;10.67;6.53;;;;;;;;;;5055840;28;20539;-70
2021/01/10 07:26:42;;;;;;;12.03;7.87;;;;;;;;;;5056541;28;20479;-70
2021/01/10 07:29:27;;;;;;;11.97;7.17;;;;;;;;;;5059338;28;20635;-70
2021/01/10 07:31:59;;;;;;;8.33;6.70;;;;;;;;;;5058986;28;20440;-69
2021/01/10 07:34:27;;;;;;;12.67;6.97;;;;;;;;;;5059458;28;20477;-69
2021/01/10 07:36:55;;;;;;;9.00;6.23;;;;;;;;;;5058557;28;20454;-70
2021/01/10 07:39:23;;;;;;;9.53;7.07;;;;;;;;;;5057920;28;20552;-70
2021/01/10 07:41:50;;;;;;;12.07;7.03;;;;;;;;;;5058004;28;20499;-69
2021/01/10 07:44:21;;;;;;;11.40;7.27;;;;;;;;;;5058417;28;20457;-70
2021/01/10 07:46:51;;;;;;;12.07;7.27;;;;;;;;;;5056207;28;20448;-69
2021/01/10 07:49:22;;;;;;;9.67;7.07;;;;;;;;;;5057899;28;20492;-69
2021/01/10 07:51:49;;;;;;;13.20;7.50;;;;;;;;;;5058303;28;20955;-69
2021/01/10 07:54:16;;;;;;;10.00;7.23;;;;;;;;;;5059064;28;20497;-72
2021/01/10 07:56:44;;;;;;;11.13;7.77;;;;;;;;;;5059255;28;20446;-71
2021/01/10 07:59:14;;;;;;;14.20;8.00;;;;;;;;;;5059259;28;20448;-71
2021/01/10 08:01:48;;;;;;;13.23;7.70;;;;;;;;;;5059303;28;20455;-71
2021/01/10 08:04:32;;;;;;;13.97;7.90;;;;;;;;;;5058986;28;20534;-71
2021/01/10 08:07:00;;;;;;;12.33;7.80;;;;;;;;;;5059074;28;20476;-71
2021/01/10 08:09:30;;;;;;;10.33;7.80;;;;;;;;;;5059117;28;20445;-71
2021/01/10 08:11:58;;;;;;;12.90;8.03;;;;;;;;;;5059084;28;20441;-71
2021/01/10 08:14:25;;;;;;;10.60;7.20;;;;;;;;;;5059004;28;20544;-71
2021/01/10 08:16:52;;;;;;;11.33;7.10;;;;;;;;;;5059101;28;20452;-71
2021/01/10 08:19:20;;;;;;;12.67;7.73;;;;;;;;;;5058964;28;20829;-72
2021/01/10 08:21:47;;;;;;;11.67;7.53;;;;;;;;;;5058674;28;20461;-71
2021/01/10 08:24:15;;;;;;;13.53;7.07;;;;;;;;;;5058600;28;20540;-71
2021/01/10 08:26:43;;;;;;;13.83;7.07;;;;;;;;;;5058690;28;20445;-72
2021/01/10 08:29:10;;;;;;;13.23;7.43;;;;;;;;;;5058528;28;20503;-72
2021/01/10 08:31:37;;;;;;;10.50;6.63;;;;;;;;;;5057454;28;20987;-71
2021/01/10 08:34:05;;;;;;;11.77;7.57;;;;;;;;;;5057639;28;20442;-72
2021/01/10 08:36:34;;;;;;;12.03;7.07;;;;;;;;;;5058507;28;20445;-72
2021/01/10 08:39:01;;;;;;;12.20;7.77;;;;;;;;;;5058208;28;21005;-72
2021/01/10 08:41:29;;;;;;;12.13;7.40;;;;;;;;;;5057840;28;20881;-70
2021/01/10 08:43:57;;;;;;;11.30;7.63;;;;;;;;;;5057809;28;20877;-72
2021/01/10 08:46:24;;;;;;;9.37;6.53;;;;;;;;;;5057786;28;20980;-72
2021/01/10 08:48:51;;;;;;;12.10;7.53;;;;;;;;;;5054629;28;20477;-72
2021/01/10 08:51:35;;;;;;;12.67;7.60;;;;;;;;;;5058153;28;20446;-73
2021/01/10 08:54:03;;;;;;;8.57;6.37;;;;;;;;;;5058053;28;20456;-73
2021/01/10 08:56:30;;;;;;;292.37;139.53;;;;;;;;;;5058178;28;20437;-73
2021/01/10 08:58:57;;;;;;;355.47;155.10;;;;;;;;;;5058287;28;20532;-73
2021/01/10 09:01:25;;;;;;;295.50;109.27;;;;;;;;;;5057938;28;20433;-72
2021/01/10 09:03:55;;;;;;;30.53;15.23;;;;;;;;;;5057740;28;20481;-72
2021/01/10 09:06:23;;;;;;;15.13;8.67;;;;;;;;;;5058038;28;20464;-72
2021/01/10 09:08:54;;;;;;;12.30;8.03;;;;;;;;;;5057351;28;20477;-71
2021/01/10 09:11:22;;;;;;;11.90;7.47;;;;;;;;;;5057283;28;20441;-71
2021/01/10 09:13:50;;;;;;;13.13;7.57;;;;;;;;;;5057274;28;20468;-72
2021/01/10 09:16:18;;;;;;;12.53;7.43;;;;;;;;;;5057679;28;20446;-72
2021/01/10 09:18:47;;;;;;;13.27;7.20;;;;;;;;;;5057386;28;20476;-72
2021/01/10 09:21:15;;;;;;;14.20;7.50;;;;;;;;;;5057592;28;20480;-71
2021/01/10 09:23:48;;;;;;;11.53;7.43;;;;;;;;;;5057175;28;20504;-72
2021/01/10 09:26:32;;;;;;;10.53;7.37;;;;;;;;;;5057484;28;20465;-71
2021/01/10 09:29:02;;;;;;;9.63;6.80;;;;;;;;;;5057317;28;20449;-71
2021/01/10 09:31:39;;;;;;;9.80;7.10;;;;;;;;;;5057596;28;20449;-72
2021/01/10 09:34:07;;;;;;;10.70;7.13;;;;;;;;;;5056988;28;20845;-71
2021/01/10 09:36:34;;;;;;;11.80;7.00;;;;;;;;;;5056967;28;20536;-71
2021/01/10 09:39:02;;;;;;;11.87;7.43;;;;;;;;;;5057017;28;20561;-72
2021/01/10 09:41:29;;;;;;;12.80;7.83;;;;;;;;;;5057300;28;20449;-72
2021/01/10 09:43:58;;;;;;;16.73;7.83;;;;;;;;;;5057286;28;20566;-72
2021/01/10 09:46:27;;;;;;;10.30;7.43;;;;;;;;;;5055208;28;20462;-72
2021/01/10 09:48:55;;;;;;;10.60;6.73;;;;;;;;;;5057008;28;20460;-72
2021/01/10 09:51:35;;;;;;;14.40;6.67;;;;;;;;;;5056518;28;20503;-72
2021/01/10 09:54:12;;;;;;;10.23;7.27;;;;;;;;;;5056977;28;20445;-72
2021/01/10 09:56:46;;;;;;;9.43;6.97;;;;;;;;;;5056539;28;20497;-72
2021/01/10 09:59:32;;;;;;;11.67;6.60;;;;;;;;;;5056872;28;20532;-71
2021/01/10 10:02:00;;;;;;;11.00;7.27;;;;;;;;;;5058332;28;20509;-71
2021/01/10 10:04:29;;;;;;;10.30;7.33;;;;;;;;;;5060313;28;20899;-71
2021/01/10 10:06:56;;;;;;;12.23;6.80;;;;;;;;;;5060489;28;20434;-72
2021/01/10 10:09:23;;;;;;;12.43;7.37;;;;;;;;;;5061034;28;20472;-72
2021/01/10 10:12:06;;;;;;;13.33;7.50;;;;;;;;;;5060830;28;20451;-71
2021/01/10 10:14:33;;;;;;;11.60;7.13;;;;;;;;;;5060702;28;20548;-71
2021/01/10 10:17:01;;;;;;;11.07;7.47;;;;;;;;;;5060447;28;20512;-71
2021/01/10 10:19:28;;;;;;;13.00;8.33;;;;;;;;;;5060536;28;20445;-72
2021/01/10 10:21:55;;;;;;;12.07;8.03;;;;;;;;;;5060417;28;20521;-71
2021/01/10 10:24:22;;;;;;;10.50;7.57;;;;;;;;;;5060286;28;20497;-71
2021/01/10 10:26:49;;;;;;;11.37;7.40;;;;;;;;;;5060107;28;20816;-71
2021/01/10 10:29:16;;;;;;;10.60;7.73;;;;;;;;;;5060623;28;20453;-71
2021/01/10 10:31:43;;;;;;;12.00;8.13;;;;;;;;;;5060447;28;20480;-71
2021/01/10 10:34:11;;;;;;;11.70;7.07;;;;;;;;;;5060183;28;20467;-71
2021/01/10 10:36:38;;;;;;;8.60;6.43;;;;;;;;;;5059998;28;20453;-71
2021/01/10 10:39:05;;;;;;;13.87;7.50;;;;;;;;;;5059880;28;20480;-71
2021/01/10 10:41:33;;;;;;;12.07;7.83;;;;;;;;;;5053391;28;20452;-72
2021/01/10 10:44:00;;;;;;;12.23;7.73;;;;;;;;;;5059923;28;20863;-71
2021/01/10 10:46:31;;;;;;;9.90;6.93;;;;;;;;;;5059941;28;20441;-71
2021/01/10 10:49:02;;;;;;;11.83;7.53;;;;;;;;;;5060029;28;20457;-71
2021/01/10 10:51:31;;;;;;;15.30;7.50;;;;;;;;;;5059433;28;20604;-71
2021/01/10 10:53:58;;;;;;;12.90;7.70;;;;;;;;;;5060091;28;20547;-71
2021/01/10 10:56:33;;;;;;;10.87;7.10;;;;;;;;;;5059309;28;20456;-71
2021/01/10 10:59:01;;;;;;;11.07;7.60;;;;;;;;;;5059871;28;20448;-71
2021/01/10 11:01:36;;;;;;;9.73;6.60;;;;;;;;;;5059938;28;20875;-72
2021/01/10 11:04:04;;;;;;;10.67;7.23;;;;;;;;;;5059565;28;20489;-69
2021/01/10 11:06:32;;;;;;;10.50;6.73;;;;;;;;;;5058947;28;20445;-71
2021/01/10 11:09:01;;;;;;;10.17;6.83;;;;;;;;;;5060033;28;20433;-73
2021/01/10 11:11:38;;;;;;;11.50;7.00;;;;;;;;;;5059690;28;20485;-71
2021/01/10 11:14:06;;;;;;;15.03;7.17;;;;;;;;;;5059534;28;20817;-71
2021/01/10 11:16:33;;;;;;;8.40;6.37;;;;;;;;;;5061560;28;20459;-74
2021/01/10 11:19:04;;;;;;;9.37;7.33;;;;;;;;;;5054009;28;20461;-72
2021/01/10 11:21:32;;;;;;;9.73;6.60;;;;;;;;;;5058149;28;20999;-71
2021/01/10 11:24:00;;;;;;;8.07;6.50;;;;;;;;;;5058536;28;20484;-73
2021/01/10 11:26:27;;;;;;;11.77;7.87;;;;;;;;;;5058434;28;20540;-73
2021/01/10 11:28:54;;;;;;;10.33;7.27;;;;;;;;;;5058676;28;20449;-73
2021/01/10 11:31:22;;;;;;;8.90;6.97;;;;;;;;;;5058149;28;20887;-73
2021/01/10 11:33:50;;;;;;;10.90;7.33;;;;;;;;;;5058128;28;20438;-73
2021/01/10 11:36:18;;;;;;;8.43;6.57;;;;;;;;;;5056567;28;20453;-73
2021/01/10 11:38:49;;;;;;;10.13;6.90;;;;;;;;;;5057999;28;20564;-73
2021/01/10 11:41:16;;;;;;;9.83;7.00;;;;;;;;;;5058418;28;20461;-73
2021/01/10 11:43:43;;;;;;;10.90;7.40;;;;;;;;;;5058568;28;20575;-70
2021/01/10 11:46:11;;;;;;;10.37;7.10;;;;;;;;;;5058098;28;20976;-70
2021/01/10 11:48:41;;;;;;;9.90;6.70;;;;;;;;;;5058264;28;20457;-69
2021/01/10 11:51:08;;;;;;;10.97;6.83;;;;;;;;;;5057904;28;20900;-71
2021/01/10 11:53:35;;;;;;;10.57;7.40;;;;;;;;;;5056011;28;20458;-71
2021/01/10 11:56:03;;;;;;;10.63;7.87;;;;;;;;;;5057411;28;20976;-71
2021/01/10 11:58:30;;;;;;;9.30;6.40;;;;;;;;;;5058595;28;20818;-72
2021/01/10 12:00:57;;;;;;;12.00;7.30;;;;;;;;;;5056389;28;20541;-71
2021/01/10 12:03:25;;;;;;;11.30;6.97;;;;;;;;;;5055367;28;20897;-73
2021/01/10 12:05:52;;;;;;;11.03;6.93;;;;;;;;;;5057234;28;20790;-71
2021/01/10 12:08:21;;;;;;;12.73;7.37;;;;;;;;;;5053079;28;20442;-73
2021/01/10 12:10:48;;;;;;;11.40;7.20;;;;;;;;;;5057228;28;20483;-74
2021/01/10 12:13:16;;;;;;;10.97;6.53;;;;;;;;;;5057067;28;20440;-72
2021/01/10 12:15:44;;;;;;;9.83;7.03;;;;;;;;;;5057284;28;20460;-74
2021/01/10 12:18:12;;;;;;;9.77;6.97;;;;;;;;;;5056276;28;20426;-75
2021/01/10 12:20:39;;;;;;;13.13;7.67;;;;;;;;;;5056774;28;20522;-75
2021/01/10 12:23:06;;;;;;;10.10;6.80;;;;;;;;;;5056516;28;20473;-73
2021/01/10 12:25:33;;;;;;;12.80;7.57;;;;;;;;;;5056808;28;20464;-73
2021/01/10 12:28:01;;;;;;;10.83;7.27;;;;;;;;;;5055011;28;20453;-73
2021/01/10 12:30:29;;;;;;;9.20;6.77;;;;;;;;;;5057501;28;20481;-73
2021/01/10 12:32:58;;;;;;;14.70;7.40;;;;;;;;;;5057927;28;20468;-73
2021/01/10 12:35:25;;;;;;;14.20;7.90;;;;;;;;;;5056563;28;20871;-73
2021/01/10 12:37:52;;;;;;;12.37;6.93;;;;;;;;;;5056920;28;20588;-73
2021/01/10 12:40:19;;;;;;;11.50;8.33;;;;;;;;;;5057588;28;20516;-73
2021/01/10 12:42:47;;;;;;;13.90;7.90;;;;;;;;;;5057499;28;20471;-74
2021/01/10 12:45:16;;;;;;;10.50;7.50;;;;;;;;;;5057128;28;20480;-73
2021/01/10 12:47:44;;;;;;;11.03;7.17;;;;;;;;;;5058000;28;20441;-73
2021/01/10 12:50:13;;;;;;;8.37;7.03;;;;;;;;;;5057668;28;20949;-73
2021/01/10 12:52:40;;;;;;;9.07;7.30;;;;;;;;;;5057400;28;20823;-73
2021/01/10 12:55:07;;;;;;;10.20;6.87;;;;;;;;;;5057093;28;20547;-73
2021/01/10 12:57:35;;;;;;;11.77;7.23;;;;;;;;;;5056744;28;20481;-74
2021/01/10 13:00:02;;;;;;;10.20;7.03;;;;;;;;;;5057241;28;20438;-74
2021/01/10 13:02:29;;;;;;;9.40;7.10;;;;;;;;;;5056847;28;20454;-74
2021/01/10 13:04:57;;;;;;;9.50;7.20;;;;;;;;;;5056848;28;20508;-73
2021/01/10 13:07:24;;;;;;;13.83;7.47;;;;;;;;;;5054066;28;20456;-73
2021/01/10 13:09:51;;;;;;;13.27;7.57;;;;;;;;;;5057247;28;20528;-73
2021/01/10 13:12:18;;;;;;;10.47;6.77;;;;;;;;;;5057152;28;20449;-73
2021/01/10 13:14:45;;;;;;;12.87;8.60;;;;;;;;;;5057170;28;20804;-71
2021/01/10 13:17:12;;;;;;;13.63;7.57;;;;;;;;;;5057348;28;20433;-71
2021/01/10 13:19:42;;;;;;;10.90;7.50;;;;;;;;;;5058004;28;20449;-71
2021/01/10 13:22:10;;;;;;;12.40;7.93;;;;;;;;;;5057480;28;20533;-71
2021/01/10 13:24:37;;;;;;;9.77;7.20;;;;;;;;;;5057305;28;20531;-71
2021/01/10 13:27:04;;;;;;;10.07;7.70;;;;;;;;;;5055662;28;20441;-71
2021/01/10 13:29:31;;;;;;;13.23;7.37;;;;;;;;;;5055885;28;20871;-71
2021/01/10 13:31:59;;;;;;;11.23;7.47;;;;;;;;;;5056562;28;20496;-71
2021/01/10 13:34:26;;;;;;;10.47;6.87;;;;;;;;;;5056474;28;20802;-71
2021/01/10 13:36:57;;;;;;;12.20;7.33;;;;;;;;;;5057374;28;20456;-71
2021/01/10 13:39:25;;;;;;;13.23;7.67;;;;;;;;;;5057293;28;20573;-72
2021/01/10 13:41:52;;;;;;;16.00;7.33;;;;;;;;;;5057257;28;20489;-73
2021/01/10 13:44:19;;;;;;;11.20;6.60;;;;;;;;;;5057908;28;20496;-74
2021/01/10 13:46:46;;;;;;;9.43;6.23;;;;;;;;;;5056913;28;20469;-74
2021/01/10 13:49:14;;;;;;;11.20;7.80;;;;;;;;;;5057295;28;20438;-74
2021/01/10 13:51:42;;;;;;;11.43;6.83;;;;;;;;;;5063245;28;20975;-74
2021/01/10 13:54:09;;;;;;;11.03;7.07;;;;;;;;;;5064375;28;21287;-74
2021/01/10 13:56:40;;;;;;;10.23;6.23;;;;;;;;;;5064109;28;21070;-74
2021/01/10 13:59:08;;;;;;;11.03;6.17;;;;;;;;;;5067104;28;20445;-74
2021/01/10 14:01:35;;;;;;;11.30;7.73;;;;;;;;;;5067062;28;20985;-74
2021/01/10 14:04:03;;;;;;;10.03;6.87;;;;;;;;;;5063387;28;20572;-72
2021/01/10 14:06:30;;;;;;;10.60;7.13;;;;;;;;;;5054444;28;20437;-73
2021/01/10 14:08:57;;;;;;;9.33;6.70;;;;;;;;;;5056818;28;20941;-74
2021/01/10 14:11:25;;;;;;;9.63;5.70;;;;;;;;;;5056708;28;20516;-73
2021/01/10 14:13:54;;;;;;;11.37;6.70;;;;;;;;;;5056444;28;20933;-73
2021/01/10 14:16:21;;;;;;;10.77;6.67;;;;;;;;;;5057463;28;20536;-74
2021/01/10 14:18:49;;;;;;;15.53;7.73;;;;;;;;;;5052509;28;20470;-72
2021/01/10 14:21:29;;;;;;;11.17;7.13;;;;;;;;;;5042367;28;20502;-74
2021/01/10 14:23:57;;;;;;;9.97;6.90;;;;;;;;;;5041177;28;20480;-73
2021/01/10 14:26:30;;;;;;;10.90;6.93;;;;;;;;;;5042484;28;21033;-73
2021/01/10 14:28:59;;;;;;;10.77;7.00;;;;;;;;;;5037929;28;20446;-73
2021/01/10 14:31:26;;;;;;;9.97;6.57;;;;;;;;;;5037692;28;20442;-73
2021/01/10 14:33:54;;;;;;;8.50;6.10;;;;;;;;;;5035983;28;20440;-72
2021/01/10 14:36:21;;;;;;;9.80;6.30;;;;;;;;;;5046599;28;20520;-73
2021/01/10 14:38:48;;;;;;;9.20;7.07;;;;;;;;;;5050267;28;20552;-72
2021/01/10 14:41:22;;;;;;;9.80;6.13;;;;;;;;;;5054129;28;20851;-73